createdAt,value
2023-04-26T00:00:46.876Z,81.78
2023-04-26T00:03:49.665Z,81.60
2023-04-26T00:06:51.951Z,80.88
2023-04-26T00:09:54.393Z,81.31
2023-04-26T00:12:56.518Z,81.23
2023-04-26T00:15:59.476Z,81.58
2023-04-26T00:19:02.166Z,81.36
2023-04-26T00:22:05.522Z,82.76
2023-04-26T00:25:08.199Z,82.41
2023-04-26T00:28:10.831Z,81.17
2023-04-26T00:31:17.364Z,81.31
2023-04-26T00:34:19.876Z,81.61
2023-04-26T00:37:23.258Z,81.33
2023-04-26T00:40:26.181Z,81.00
2023-04-26T00:43:28.464Z,81.52
2023-04-26T00:46:31.519Z,81.14
2023-04-26T00:49:33.830Z,80.83
2023-04-26T00:52:37.098Z,80.99
2023-04-26T00:55:39.355Z,81.15
2023-04-26T00:58:41.997Z,81.39
2023-04-26T01:01:44.296Z,82.81
2023-04-26T01:04:48.140Z,82.20
2023-04-26T01:07:51.072Z,82.40
2023-04-26T01:10:53.711Z,82.74
2023-04-26T01:13:57.400Z,82.20
2023-04-26T01:17:00.145Z,82.01
2023-04-26T01:20:02.416Z,82.35
2023-04-26T01:23:04.992Z,82.52
2023-04-26T01:26:07.749Z,82.72
2023-04-26T01:29:14.977Z,83.37
2023-04-26T01:32:17.289Z,83.12
2023-04-26T01:35:19.777Z,83.73
2023-04-26T01:38:23.302Z,83.81
2023-04-26T01:41:25.721Z,84.10
2023-04-26T01:44:27.919Z,84.35
2023-04-26T01:47:30.465Z,84.17
2023-04-26T01:50:33.074Z,84.18
2023-04-26T01:53:35.615Z,83.74
2023-04-26T01:56:39.569Z,83.90
2023-04-26T01:59:42.156Z,83.85
2023-04-26T02:02:44.749Z,83.57
2023-04-26T02:05:47.345Z,84.41
2023-04-26T02:08:49.858Z,83.69
2023-04-26T02:11:52.352Z,83.62
2023-04-26T02:14:54.513Z,83.85
2023-04-26T02:17:57.062Z,84.42
2023-04-26T02:20:59.277Z,84.56
2023-04-26T02:24:01.734Z,84.45
2023-04-26T02:27:06.150Z,84.76
2023-04-26T02:30:10.381Z,83.91
2023-04-26T02:33:12.623Z,83.74
2023-04-26T02:36:15.115Z,83.61
2023-04-26T02:39:17.319Z,84.27
2023-04-26T02:42:19.990Z,84.17
2023-04-26T02:45:22.424Z,84.03
2023-04-26T02:48:25.036Z,83.88
2023-04-26T02:51:27.231Z,84.06
2023-04-26T02:54:29.736Z,84.08
2023-04-26T02:57:32.729Z,84.02
2023-04-26T03:00:35.399Z,83.35
2023-04-26T03:03:37.825Z,83.28
2023-04-26T03:06:41.118Z,82.80
2023-04-26T03:09:43.306Z,82.95
2023-04-26T03:12:45.849Z,83.20
2023-04-26T03:15:48.235Z,82.06
2023-04-26T03:18:51.067Z,82.18
2023-04-26T03:21:53.842Z,82.05
2023-04-26T03:24:57.020Z,81.03
2023-04-26T03:28:00.151Z,80.97
2023-04-26T03:31:03.092Z,81.35
2023-04-26T03:34:05.521Z,81.35
2023-04-26T03:37:08.056Z,82.22
2023-04-26T03:40:12.037Z,82.11
2023-04-26T03:43:14.651Z,81.54
2023-04-26T03:46:17.045Z,81.84
2023-04-26T03:49:21.273Z,81.33
2023-04-26T03:52:23.724Z,81.33
2023-04-26T03:55:26.708Z,81.70
2023-04-26T03:58:28.901Z,81.50
2023-04-26T04:01:31.825Z,81.28
2023-04-26T04:04:34.596Z,81.91
2023-04-26T04:07:37.178Z,80.79
2023-04-26T04:10:39.903Z,81.31
2023-04-26T04:13:42.120Z,81.21
2023-04-26T04:16:44.746Z,82.21
2023-04-26T04:19:46.993Z,80.64
2023-04-26T04:22:49.486Z,79.66
2023-04-26T04:25:52.423Z,78.81
2023-04-26T04:28:57.290Z,77.65
2023-04-26T04:31:59.661Z,77.31
2023-04-26T04:35:03.318Z,78.02
2023-04-26T04:38:05.643Z,78.27
2023-04-26T04:41:08.850Z,76.99
2023-04-26T04:44:11.705Z,76.80
2023-04-26T04:47:15.271Z,75.23
2023-04-26T04:50:17.617Z,73.56
2023-04-26T04:53:20.237Z,73.45
2023-04-26T04:56:22.595Z,73.78
2023-04-26T04:59:25.542Z,73.06
2023-04-26T05:02:28.080Z,72.51
2023-04-26T05:05:31.124Z,70.87
2023-04-26T05:08:33.551Z,71.17
2023-04-26T05:11:36.863Z,71.48
2023-04-26T05:14:40.803Z,72.17
2023-04-26T05:17:43.459Z,73.11
2023-04-26T05:20:46.480Z,72.12
2023-04-26T05:23:49.350Z,70.59
2023-04-26T05:26:52.179Z,67.37
2023-04-26T05:29:55.479Z,66.13
2023-04-26T05:32:58.015Z,64.33
2023-04-26T05:36:01.578Z,64.53
2023-04-26T05:39:06.768Z,65.71
2023-04-26T05:42:09.926Z,59.57
2023-04-26T05:45:12.624Z,53.69
2023-04-26T05:48:16.382Z,48.66
2023-04-26T05:51:18.644Z,43.23
2023-04-26T05:54:22.218Z,38.64
2023-04-26T05:57:24.851Z,38.19
2023-04-26T06:00:27.495Z,36.83
2023-04-26T06:03:31.229Z,37.50
2023-04-26T06:06:33.741Z,38.24
2023-04-26T06:09:36.312Z,37.69
2023-04-26T06:12:39.158Z,37.22
2023-04-26T06:15:44.886Z,36.81
2023-04-26T06:18:47.287Z,35.62
2023-04-26T06:21:52.216Z,35.73
2023-04-26T06:24:55.911Z,34.37
2023-04-26T06:27:58.876Z,35.55
2023-04-26T06:31:01.645Z,37.08
2023-04-26T06:34:05.481Z,35.99
2023-04-26T06:37:08.265Z,35.76
2023-04-26T06:40:15.887Z,35.26
2023-04-26T06:43:18.557Z,35.35
2023-04-26T06:46:21.656Z,35.69
2023-04-26T06:49:26.690Z,34.94
2023-04-26T06:52:29.964Z,31.62
2023-04-26T06:55:33.833Z,33.67
2023-04-26T06:58:36.644Z,35.14
2023-04-26T07:01:38.969Z,32.59
2023-04-26T07:04:41.818Z,30.83
2023-04-26T07:07:44.130Z,30.21
2023-04-26T07:10:47.016Z,30.61
2023-04-26T07:13:49.461Z,32.24
2023-04-26T07:16:52.057Z,31.08
2023-04-26T07:19:55.946Z,31.26
2023-04-26T07:22:58.642Z,32.34
2023-04-26T07:26:04.470Z,32.68
2023-04-26T07:29:07.411Z,34.18
2023-04-26T07:32:10.040Z,33.81
2023-04-26T07:35:16.298Z,34.19
2023-04-26T07:38:19.621Z,34.48
2023-04-26T07:41:22.122Z,35.57
2023-04-26T07:44:24.358Z,35.01
2023-04-26T07:47:26.879Z,37.29
2023-04-26T07:50:29.072Z,35.88
2023-04-26T07:53:31.495Z,36.65
2023-04-26T07:56:33.711Z,36.17
2023-04-26T07:59:37.439Z,38.31
2023-04-26T08:02:45.042Z,39.10
2023-04-26T08:05:48.246Z,40.47
2023-04-26T08:08:53.724Z,40.19
2023-04-26T08:11:57.075Z,39.60
2023-04-26T08:15:03.285Z,40.37
2023-04-26T08:18:25.980Z,41.05
2023-04-26T08:21:28.148Z,41.24
2023-04-26T08:24:30.709Z,42.21
2023-04-26T08:27:34.392Z,41.52
2023-04-26T08:30:36.931Z,42.07
2023-04-26T08:33:39.203Z,43.42
2023-04-26T08:36:42.140Z,42.18
2023-04-26T08:39:44.480Z,41.64
2023-04-26T08:42:47.604Z,42.02
2023-04-26T08:45:50.912Z,41.29
2023-04-26T08:49:12.642Z,41.27
2023-04-26T08:52:23.414Z,40.38
2023-04-26T08:55:27.004Z,39.88
2023-04-26T08:58:29.468Z,39.39
2023-04-26T09:01:34.014Z,38.41
2023-04-26T09:04:37.258Z,39.91
2023-04-26T09:07:47.608Z,38.90
2023-04-26T09:10:49.887Z,39.27
2023-04-26T09:13:52.639Z,37.49
2023-04-26T09:16:55.842Z,38.35
2023-04-26T09:19:59.781Z,37.67
2023-04-26T09:23:06.611Z,36.70
2023-04-26T09:26:19.078Z,36.03
2023-04-26T09:29:21.348Z,35.64
2023-04-26T09:32:24.771Z,35.66
2023-04-26T09:35:43.528Z,35.64
2023-04-26T09:38:45.975Z,35.35
2023-04-26T09:41:48.089Z,34.17
2023-04-26T09:44:51.850Z,32.55
2023-04-26T09:47:55.115Z,31.29
2023-04-26T09:50:59.033Z,31.22
2023-04-26T09:54:01.305Z,32.44
2023-04-26T09:57:03.999Z,29.25
2023-04-26T10:00:09.278Z,29.34
2023-04-26T10:03:13.048Z,29.79
2023-04-26T10:06:16.251Z,28.83
2023-04-26T10:09:18.629Z,29.25
2023-04-26T10:12:20.865Z,32.29
2023-04-26T10:15:23.526Z,32.26
2023-04-26T10:18:25.852Z,30.99
2023-04-26T10:21:37.003Z,31.08
2023-04-26T10:24:39.382Z,28.17
2023-04-26T10:27:45.128Z,29.87
2023-04-26T10:30:57.450Z,30.23
2023-04-26T10:34:19.863Z,30.20
2023-04-26T10:37:22.422Z,27.47
2023-04-26T10:40:39.284Z,26.98
2023-04-26T10:43:42.859Z,23.99
2023-04-26T10:46:51.740Z,23.71
2023-04-26T10:50:05.387Z,25.36
2023-04-26T10:53:08.682Z,28.97
2023-04-26T10:56:11.155Z,31.01
2023-04-26T10:59:36.359Z,27.92
2023-04-26T11:02:52.931Z,25.48
2023-04-26T11:05:56.196Z,27.40
2023-04-26T11:09:00.188Z,30.34
2023-04-26T11:12:16.677Z,32.62
2023-04-26T11:15:19.761Z,32.02
2023-04-26T11:18:22.622Z,31.76
2023-04-26T11:21:26.891Z,31.87
2023-04-26T11:24:36.629Z,28.94
2023-04-26T11:27:39.182Z,26.24
2023-04-26T11:30:41.838Z,27.91
2023-04-26T11:33:44.010Z,29.25
2023-04-26T11:36:47.273Z,30.38
2023-04-26T11:39:51.208Z,28.52
2023-04-26T11:42:53.717Z,27.79
2023-04-26T11:46:01.196Z,28.64
2023-04-26T11:49:04.106Z,30.11
2023-04-26T11:52:09.620Z,29.61
2023-04-26T11:55:12.644Z,26.24
2023-04-26T11:58:15.327Z,28.24
2023-04-26T12:01:28.667Z,29.04
2023-04-26T12:04:31.478Z,30.08
2023-04-26T12:07:37.937Z,30.52
2023-04-26T12:10:40.516Z,30.60
2023-04-26T12:13:42.680Z,29.52
2023-04-26T12:16:46.758Z,28.39
2023-04-26T12:19:49.892Z,30.07
2023-04-26T12:23:06.282Z,31.37
2023-04-26T12:26:12.210Z,31.61
2023-04-26T12:29:16.063Z,32.21
2023-04-26T12:32:22.463Z,33.15
2023-04-26T12:35:25.448Z,34.03
2023-04-26T12:38:27.767Z,33.06
2023-04-26T12:41:30.247Z,31.72
2023-04-26T12:44:32.394Z,31.55
2023-04-26T12:47:34.946Z,32.18
2023-04-26T12:50:37.198Z,32.38
2023-04-26T12:53:40.150Z,31.00
2023-04-26T12:56:44.384Z,32.11
2023-04-26T12:59:47.028Z,32.15
2023-04-26T13:02:49.319Z,33.25
2023-04-26T13:05:52.345Z,33.46
2023-04-26T13:08:54.575Z,33.01
2023-04-26T13:11:57.509Z,33.53
2023-04-26T13:14:59.790Z,33.01
2023-04-26T13:18:02.685Z,31.99
2023-04-26T13:21:05.173Z,31.45
2023-04-26T13:24:08.126Z,30.89
2023-04-26T13:27:10.585Z,31.29
2023-04-26T13:30:13.761Z,32.13
2023-04-26T13:33:21.298Z,32.92
2023-04-26T13:36:24.171Z,32.57
2023-04-26T13:39:28.353Z,32.83
2023-04-26T13:42:31.916Z,33.04
2023-04-26T13:45:36.734Z,33.42
2023-04-26T13:48:39.293Z,33.43
2023-04-26T13:51:41.789Z,33.15
2023-04-26T13:54:44.206Z,32.94
2023-04-26T13:57:46.487Z,32.82
2023-04-26T14:00:49.055Z,34.52
2023-04-26T14:03:54.229Z,35.35
2023-04-26T14:06:58.679Z,35.73
2023-04-26T14:10:01.336Z,35.27
2023-04-26T14:13:03.543Z,35.70
2023-04-26T14:16:06.629Z,34.67
2023-04-26T14:19:08.877Z,34.17
2023-04-26T14:22:12.897Z,34.72
2023-04-26T14:25:15.319Z,34.62
2023-04-26T14:28:18.055Z,33.89
2023-04-26T14:31:20.452Z,34.00
2023-04-26T14:34:23.714Z,33.86
2023-04-26T14:37:25.851Z,33.19
2023-04-26T14:40:28.418Z,33.89
2023-04-26T14:43:30.881Z,32.92
2023-04-26T14:46:33.416Z,33.32
2023-04-26T14:49:35.704Z,33.45
2023-04-26T14:52:38.212Z,34.86
2023-04-26T14:55:40.446Z,35.77
2023-04-26T14:58:43.117Z,36.69
2023-04-26T15:01:45.454Z,35.67
2023-04-26T15:04:48.408Z,35.36
2023-04-26T15:07:52.013Z,35.33
2023-04-26T15:10:54.672Z,35.47
2023-04-26T15:13:56.978Z,35.17
2023-04-26T15:16:59.579Z,35.78
2023-04-26T15:20:02.100Z,34.24
2023-04-26T15:23:04.653Z,34.75
2023-04-26T15:26:06.832Z,36.24
2023-04-26T15:29:09.274Z,37.02
2023-04-26T15:32:11.544Z,36.25
2023-04-26T15:35:15.351Z,37.10
2023-04-26T15:38:18.048Z,37.31
2023-04-26T15:41:20.549Z,36.84
2023-04-26T15:44:22.693Z,36.40
2023-04-26T15:47:25.558Z,35.55
2023-04-26T15:50:28.437Z,35.66
2023-04-26T15:53:31.231Z,34.48
2023-04-26T15:56:33.464Z,35.09
2023-04-26T15:59:36.397Z,34.97
2023-04-26T16:02:38.737Z,34.61
2023-04-26T16:05:41.328Z,33.82
2023-04-26T16:08:43.574Z,34.05
2023-04-26T16:11:47.487Z,34.21
2023-04-26T16:14:51.237Z,33.91
2023-04-26T16:17:53.916Z,34.39
2023-04-26T16:21:07.610Z,34.40
2023-04-26T16:24:11.455Z,34.35
2023-04-26T16:27:13.640Z,33.76
2023-04-26T16:30:16.496Z,34.13
2023-04-26T16:33:21.385Z,33.93
2023-04-26T16:36:25.628Z,33.65
2023-04-26T16:39:28.681Z,34.55
2023-04-26T16:42:31.185Z,34.70
2023-04-26T16:45:33.351Z,35.36
2023-04-26T16:48:38.404Z,36.01
2023-04-26T16:51:42.029Z,35.86
2023-04-26T16:54:44.514Z,36.09
2023-04-26T16:57:46.740Z,36.54
2023-04-26T17:00:49.311Z,36.39
2023-04-26T17:03:52.192Z,37.21
2023-04-26T17:06:54.776Z,37.71
2023-04-26T17:09:57.003Z,37.14
2023-04-26T17:13:00.572Z,36.48
2023-04-26T17:16:03.246Z,36.43
2023-04-26T17:19:06.767Z,36.47
2023-04-26T17:22:09.114Z,36.91
2023-04-26T17:25:11.746Z,36.70
2023-04-26T17:28:14.622Z,36.98
2023-04-26T17:31:17.177Z,37.16
2023-04-26T17:34:19.308Z,37.75
2023-04-26T17:37:21.726Z,37.87
2023-04-26T17:40:24.145Z,38.07
2023-04-26T17:43:26.590Z,37.78
2023-04-26T17:46:28.929Z,38.02
2023-04-26T17:49:32.049Z,38.38
2023-04-26T17:52:34.263Z,37.89
2023-04-26T17:55:37.345Z,37.84
2023-04-26T17:58:42.218Z,37.53
2023-04-26T18:01:44.720Z,37.41
2023-04-26T18:04:47.636Z,37.46
2023-04-26T18:07:50.457Z,37.93
2023-04-26T18:10:53.975Z,38.32
2023-04-26T18:13:56.091Z,38.72
2023-04-26T18:16:58.632Z,38.84
2023-04-26T18:20:01.089Z,38.43
2023-04-26T18:23:03.987Z,38.95
2023-04-26T18:26:06.180Z,39.44
2023-04-26T18:29:08.607Z,39.28
2023-04-26T18:32:10.784Z,39.73
2023-04-26T18:35:13.364Z,41.89
2023-04-26T18:38:16.161Z,41.72
2023-04-26T18:41:18.593Z,40.96
2023-04-26T18:44:21.087Z,41.36
2023-04-26T18:47:23.750Z,42.59
2023-04-26T18:50:26.064Z,41.99
2023-04-26T18:53:28.746Z,42.27
2023-04-26T18:56:31.581Z,41.98
2023-04-26T18:59:34.060Z,42.65
2023-04-26T19:02:39.973Z,43.60
2023-04-26T19:05:43.212Z,43.70
2023-04-26T19:08:45.543Z,43.05
2023-04-26T19:11:48.043Z,44.87
2023-04-26T19:14:50.201Z,44.52
2023-04-26T19:17:52.877Z,43.87
2023-04-26T19:20:55.145Z,44.05
2023-04-26T19:23:58.383Z,44.55
2023-04-26T19:27:00.792Z,43.95
2023-04-26T19:30:03.401Z,44.34
2023-04-26T19:33:05.991Z,44.69
2023-04-26T19:36:09.725Z,45.17
2023-04-26T19:39:12.076Z,45.06
2023-04-26T19:42:14.531Z,45.16
2023-04-26T19:45:20.348Z,44.04
2023-04-26T19:48:22.952Z,44.47
2023-04-26T19:51:25.065Z,44.52
2023-04-26T19:54:27.716Z,45.25
2023-04-26T19:57:29.851Z,44.64
2023-04-26T20:00:35.679Z,44.63
2023-04-26T20:03:39.291Z,44.26
2023-04-26T20:06:41.922Z,45.62
2023-04-26T20:09:44.534Z,46.05
2023-04-26T20:12:47.212Z,45.19
2023-04-26T20:15:49.794Z,45.45
2023-04-26T20:18:52.017Z,44.66
2023-04-26T20:21:56.012Z,45.17
2023-04-26T20:24:58.299Z,45.11
2023-04-26T20:28:02.175Z,45.61
2023-04-26T20:31:04.358Z,45.89
2023-04-26T20:34:06.879Z,45.85
2023-04-26T20:37:09.461Z,46.60
2023-04-26T20:40:12.103Z,46.20
2023-04-26T20:43:14.716Z,47.05
2023-04-26T20:46:17.191Z,46.64
2023-04-26T20:49:19.420Z,48.23
2023-04-26T20:52:22.071Z,48.17
2023-04-26T20:55:24.324Z,48.85
2023-04-26T20:58:26.960Z,48.05
2023-04-26T21:01:29.151Z,49.17
2023-04-26T21:04:31.868Z,49.49
2023-04-26T21:07:34.338Z,48.78
2023-04-26T21:10:37.209Z,49.25
2023-04-26T21:13:39.428Z,48.89
2023-04-26T21:16:41.972Z,48.40
2023-04-26T21:19:44.523Z,48.50
2023-04-26T21:22:46.997Z,49.70
2023-04-26T21:25:49.159Z,50.52
2023-04-26T21:28:51.574Z,51.38
2023-04-26T21:31:53.985Z,51.90
2023-04-26T21:34:56.714Z,51.35
2023-04-26T21:37:59.099Z,50.79
2023-04-26T21:41:01.597Z,51.79
2023-04-26T21:44:04.335Z,51.05
2023-04-26T21:47:06.997Z,52.38
2023-04-26T21:50:09.842Z,52.58
2023-04-26T21:53:12.384Z,52.92
2023-04-26T21:56:14.854Z,54.04
2023-04-26T21:59:17.365Z,54.25
2023-04-26T22:02:19.892Z,55.32
2023-04-26T22:05:25.708Z,54.90
2023-04-26T22:08:28.052Z,55.68
2023-04-26T22:11:30.529Z,55.06
2023-04-26T22:14:32.812Z,54.50
2023-04-26T22:17:35.994Z,54.63
2023-04-26T22:20:38.627Z,54.99
2023-04-26T22:23:41.346Z,54.31
2023-04-26T22:26:43.546Z,54.32
2023-04-26T22:29:45.992Z,53.03
2023-04-26T22:32:52.738Z,53.08
2023-04-26T22:35:58.170Z,53.12
2023-04-26T22:39:00.455Z,52.92
2023-04-26T22:42:03.092Z,54.09
2023-04-26T22:45:06.728Z,53.36
2023-04-26T22:48:09.267Z,53.71
2023-04-26T22:51:11.599Z,53.27
2023-04-26T22:54:14.055Z,53.24
2023-04-26T22:57:18.634Z,53.30
2023-04-26T23:00:22.073Z,53.45
2023-04-26T23:03:24.817Z,52.80
2023-04-26T23:06:28.067Z,52.69
2023-04-26T23:09:30.394Z,52.52
2023-04-26T23:12:33.375Z,52.08
2023-04-26T23:15:35.603Z,52.30
2023-04-26T23:18:38.036Z,51.90
2023-04-26T23:21:40.199Z,52.47
2023-04-26T23:24:42.828Z,53.46
2023-04-26T23:27:46.062Z,53.16
2023-04-26T23:30:48.678Z,52.87
2023-04-26T23:33:50.893Z,52.92
2023-04-26T23:36:53.355Z,52.76
2023-04-26T23:39:55.746Z,52.62
2023-04-26T23:42:58.241Z,52.57
2023-04-26T23:46:00.553Z,52.07
2023-04-26T23:49:03.114Z,52.75
2023-04-26T23:52:05.321Z,53.92
2023-04-26T23:55:08.248Z,53.90
2023-04-26T23:58:10.431Z,53.85
